This is the latest recevied weather packets stored in our database for station/object N3TJJ-2. If no packets are shown the sender has not sent any weather packets the latest 1 day(s).
| Time | Temp. | Humidity | Pressure | Rain* | Wind** | Luminosity | Snow |
|---|---|---|---|---|---|---|---|
| 1777985955 | 18.89° C | 65% | 1012.8 hPa | 0 mm | 2.24 m/s, 68° | - | - |
| 1777985605 | 18.33° C | 65% | 1012.8 hPa | 0 mm | 2.68 m/s, 70° | - | - |
| 1777985240 | 18.33° C | 66% | 1012.9 hPa | 0 mm | 2.24 m/s, 58° | - | - |
| 1777984875 | 17.78° C | 67% | 1012.8 hPa | 0 mm | 2.24 m/s, 73° | - | - |
| 1777984587 | 17.78° C | 67% | 1012.8 hPa | 0 mm | 1.79 m/s, 50° | - | - |
| 1777984155 | 17.78° C | 67% | 1012.8 hPa | 0 mm | 2.68 m/s, 43° | - | - |
| 1777983798 | 17.22° C | 68% | 1012.8 hPa | 0 mm | 2.68 m/s, 43° | - | - |
| 1777983436 | 17.22° C | 69% | 1012.8 hPa | 0 mm | 2.68 m/s, 60° | - | - |
| 1777983075 | 17.22° C | 69% | 1012.7 hPa | 0 mm | 2.68 m/s, 46° | - | - |
| 1777982727 | 17.22° C | 69% | 1012.7 hPa | 0 mm | 2.68 m/s, 29° | - | - |
| 1777982355 | 17.22° C | 69% | 1012.5 hPa | 0 mm | 2.68 m/s, 34° | - | - |
| 1777982000 | 16.67° C | 71% | 1012.4 hPa | 0 mm | 2.24 m/s, 32° | - | - |
| 1777981693 | 16.67° C | 71% | 1012.3 hPa | 0 mm | 1.79 m/s, 36° | - | - |
| 1777981278 | 16.67° C | 72% | 1012.2 hPa | 0 mm | 1.79 m/s, 38° | - | - |
| 1777980916 | 16.11° C | 73% | 1012.2 hPa | 0 mm | 1.34 m/s, 27° | - | - |
| 1777980555 | 16.11° C | 74% | 1012.3 hPa | 0 mm | 1.34 m/s, 32° | - | - |
| 1777980199 | 15.56° C | 75% | 1012.2 hPa | 0 mm | 0.89 m/s, 23° | - | - |
| 1777979854 | 15.56° C | 75% | 1012.1 hPa | 0 mm | 0.89 m/s, 24° | - | - |
| 1777979476 | 15° C | 75% | 1012.1 hPa | 0 mm | 0.45 m/s, 29° | - | - |
| 1777979115 | 15° C | 75% | 1012 hPa | 0 mm | 0.45 m/s, 29° | - | - |
| 1777978759 | 14.44° C | 76% | 1011.9 hPa | 0 mm | 0.45 m/s, 27° | - | - |
| 1777978052 | 13.89° C | 77% | 1011.8 hPa | 0 mm | 0.45 m/s, 27° | - | - |
| 1777977701 | 13.89° C | 78% | 1011.8 hPa | 0 mm | 0.45 m/s, 28° | - | - |
| 1777977318 | 13.33° C | 78% | 1011.7 hPa | 0 mm | 0.45 m/s, 24° | - | - |
| 1777960755 | 15° C | 71% | 1011.3 hPa | 0 mm | 0.89 m/s, 27° | - | - |
* Rain latest hour (hover to see other rain measurements)
** Current wind speed in m/s (hover to see current wind gust speed)